Time;durP1;ratioP1;P1;durP2;ratioP2;P2;SDS_P1;SDS_P2;PMS_P1;PMS_P2;Temp;Humidity;BMP_temperature;BMP_pressure;BME280_temperature;BME280_humidity;BME280_pressure;Samples;Min_cycle;Max_cycle;Signal;HPM_P1;HPM_P2
2021/12/26 00:00:58;;;;;;;;;23.00;18.25;;;;;12.13;70.79;99868.66;5079961;28;47101;-64
2021/12/26 00:03:27;;;;;;;;;24.00;20.50;;;;;12.33;70.60;99890.19;5096376;27;44933;-66
2021/12/26 00:05:54;;;;;;;;;25.50;18.50;;;;;12.34;70.22;99892.00;5112966;27;45379;-66
2021/12/26 00:08:20;;;;;;;;;26.00;23.50;;;;;12.25;70.20;99875.88;5104326;27;45381;-65
2021/12/26 00:10:48;;;;;;;;;15.75;15.25;;;;;12.34;71.06;99891.09;5099110;27;45525;-67
2021/12/26 00:13:14;;;;;;;;;21.50;19.25;;;;;12.24;70.77;99883.91;5079134;27;45413;-66
2021/12/26 00:15:39;;;;;;;;;27.75;19.25;;;;;12.26;70.59;99891.06;5099430;27;45247;-65
2021/12/26 00:18:05;;;;;;;;;16.50;16.50;;;;;12.22;71.45;99873.16;5111650;27;45258;-65
2021/12/26 00:20:31;;;;;;;;;23.00;18.50;;;;;12.30;70.20;99887.50;5099953;27;45641;-66
2021/12/26 00:22:56;;;;;;;;;14.25;13.00;;;;;12.30;70.31;99883.94;5103513;27;45645;-65
2021/12/26 00:25:21;;;;;;;;;23.25;20.00;;;;;11.89;70.14;99809.59;5097913;27;45219;-66
2021/12/26 00:27:47;;;;;;;;;23.75;21.25;;;;;12.31;69.94;99880.38;5088536;27;45334;-66
2021/12/26 00:30:17;;;;;;;;;29.00;20.50;;;;;12.22;70.16;99864.25;5106198;27;45529;-69
2021/12/26 00:32:43;;;;;;;;;18.50;17.75;;;;;12.29;71.23;99875.00;5089814;27;45413;-68
2021/12/26 00:35:10;;;;;;;;;18.75;16.75;;;;;12.23;71.08;99874.97;5099529;27;45538;-68
2021/12/26 00:37:36;;;;;;;;;21.00;18.50;;;;;12.25;70.01;99875.00;5090990;27;45311;-64
2021/12/26 00:40:03;;;;;;;;;22.25;20.25;;;;;12.27;69.82;99874.09;5090233;27;46099;-65
2021/12/26 00:42:28;;;;;;;;;22.50;15.75;;;;;12.03;70.93;99841.81;5099998;27;45190;-65
2021/12/26 00:44:54;;;;;;;;;24.00;20.75;;;;;12.13;69.75;99855.28;5106083;27;45128;-67
2021/12/26 00:47:19;;;;;;;;;20.00;17.25;;;;;12.25;70.77;99867.84;5089583;27;45651;-67
2021/12/26 00:49:45;;;;;;;;;21.00;18.75;;;;;12.27;69.92;99862.50;5093236;27;45146;-64
2021/12/26 00:52:10;;;;;;;;;22.25;19.25;;;;;12.28;70.27;99864.28;5108103;27;45141;-67
2021/12/26 00:54:36;;;;;;;;;26.00;22.00;;;;;12.25;70.64;99858.91;5112616;27;44876;-67
2021/12/26 00:57:02;;;;;;;;;24.25;21.00;;;;;12.25;71.00;99864.28;5076263;27;45326;-67
2021/12/26 00:59:27;;;;;;;;;32.75;22.00;;;;;12.26;70.26;99872.31;5083990;28;45582;-64
2021/12/26 01:01:54;;;;;;;;;22.50;20.25;;;;;12.09;70.56;99844.53;5073647;28;45149;-64
2021/12/26 01:04:20;;;;;;;;;22.75;18.50;;;;;12.24;70.35;99884.81;5070482;28;45953;-65
2021/12/26 01:06:46;;;;;;;;;35.25;25.50;;;;;12.19;71.15;99866.91;5077915;28;45137;-65
2021/12/26 01:09:16;;;;;;;;;27.75;22.25;;;;;12.23;70.50;99876.78;5076736;28;45331;-65
2021/12/26 01:11:43;;;;;;;;;22.50;20.25;;;;;12.19;70.65;99873.16;5079769;28;45308;-64
2021/12/26 01:14:12;;;;;;;;;29.25;26.75;;;;;12.20;70.29;99877.63;5065816;28;45518;-66
2021/12/26 01:16:38;;;;;;;;;27.50;22.50;;;;;12.23;70.88;99864.25;5071590;28;45488;-66
2021/12/26 01:19:16;;;;;;;;;21.25;20.00;;;;;12.20;70.75;99874.06;5079245;28;45548;-64
2021/12/26 01:21:43;;;;;;;;;22.50;21.50;;;;;12.02;70.94;99840.06;5068846;28;45370;-67
2021/12/26 01:24:12;;;;;;;;;22.75;22.75;;;;;12.07;70.36;99847.22;5072864;28;45418;-66
2021/12/26 01:26:39;;;;;;;;;27.50;25.75;;;;;12.20;70.42;99877.63;5088293;28;45220;-65
2021/12/26 01:29:06;;;;;;;;;27.75;22.00;;;;;12.12;70.87;99868.66;5085647;28;45543;-65
2021/12/26 01:31:32;;;;;;;;;22.50;20.50;;;;;12.03;71.03;99852.53;5090468;28;45077;-66
2021/12/26 01:34:04;;;;;;;;;26.50;19.50;;;;;12.14;70.96;99870.47;5082572;28;45361;-65
2021/12/26 01:36:31;;;;;;;;;26.00;22.25;;;;;12.14;70.74;99872.22;5072745;28;45458;-65
2021/12/26 01:38:59;;;;;;;;;27.00;23.25;;;;;12.17;71.35;99877.59;5087367;28;45847;-66
2021/12/26 01:41:25;;;;;;;;;24.00;18.75;;;;;12.16;71.51;99871.38;5087732;28;45238;-66
2021/12/26 01:43:53;;;;;;;;;22.75;21.50;;;;;12.16;71.21;99875.84;5080130;28;45268;-64
2021/12/26 01:46:18;;;;;;;;;29.00;21.00;;;;;12.02;70.73;99850.75;5084204;28;45034;-64
2021/12/26 01:48:44;;;;;;;;;20.25;20.00;;;;;12.13;70.56;99866.00;5081798;28;46040;-65
2021/12/26 01:51:10;;;;;;;;;18.00;15.00;;;;;12.14;71.51;99858.84;5081857;28;45430;-65
2021/12/26 01:53:38;;;;;;;;;22.00;20.25;;;;;11.64;71.58;99790.72;5079397;27;45341;-65
2021/12/26 01:56:07;;;;;;;;;19.75;17.25;;;;;12.14;71.25;99861.53;5085579;27;45393;-65
2021/12/26 01:58:35;;;;;;;;;23.50;20.50;;;;;12.12;70.69;99866.88;5090126;28;45335;-66
2021/12/26 02:01:09;;;;;;;;;20.00;20.00;;;;;11.94;70.41;99835.53;5086621;28;45314;-66
2021/12/26 02:03:36;;;;;;;;;23.75;21.00;;;;;12.13;70.28;99860.63;5079077;28;45217;-64
2021/12/26 02:06:02;;;;;;;;;26.25;23.50;;;;;12.04;71.40;99849.84;5086808;28;45274;-67
2021/12/26 02:08:28;;;;;;;;;21.50;19.00;;;;;12.13;71.20;99865.09;5080952;28;46217;-65
2021/12/26 02:10:53;;;;;;;;;24.75;23.00;;;;;11.93;70.41;99844.47;5068807;28;45228;-66
2021/12/26 02:13:19;;;;;;;;;22.75;18.50;;;;;12.05;70.57;99870.41;5057441;28;45903;-65
2021/12/26 02:15:44;;;;;;;;;23.75;20.75;;;;;12.06;71.58;99868.63;5056504;28;45471;-64
2021/12/26 02:18:11;;;;;;;;;23.25;20.75;;;;;12.08;70.72;99873.09;5071788;28;45485;-65
2021/12/26 02:24:02;;;;;;;;;27.75;20.25;;;;;12.10;71.68;99876.69;5074618;28;45408;-65
2021/12/26 02:28:58;;;;;;;;;26.00;19.25;;;;;12.05;70.92;99848.09;5079570;28;45876;-64
2021/12/26 02:31:24;;;;;;;;;24.00;20.00;;;;;12.17;71.20;99872.25;5084367;28;45271;-67
2021/12/26 02:33:49;;;;;;;;;26.00;20.75;;;;;12.15;70.67;99858.84;5065338;28;45671;-64
2021/12/26 02:36:14;;;;;;;;;21.50;18.25;;;;;12.23;70.72;99871.41;5080766;28;45294;-64
2021/12/26 02:38:40;;;;;;;;;23.00;21.75;;;;;12.18;71.00;99863.34;5071860;28;45445;-64
2021/12/26 02:41:05;;;;;;;;;28.50;21.25;;;;;11.91;71.02;99821.19;5085878;28;45329;-66
2021/12/26 02:43:33;;;;;;;;;27.75;22.75;;;;;12.14;71.17;99861.53;5080754;28;45354;-66
2021/12/26 02:46:04;;;;;;;;;20.50;18.50;;;;;12.13;71.30;99865.09;5079220;28;45488;-67
2021/12/26 02:48:30;;;;;;;;;20.75;16.00;;;;;12.14;70.76;99866.88;5066481;28;45446;-68
2021/12/26 02:50:57;;;;;;;;;26.25;20.25;;;;;12.17;70.37;99858.88;5075548;28;45471;-65
2021/12/26 02:53:23;;;;;;;;;23.75;20.50;;;;;12.11;70.76;99840.06;5091112;28;45165;-65
2021/12/26 02:55:52;;;;;;;;;23.25;20.00;;;;;12.16;70.65;99849.94;5080853;28;45378;-65
2021/12/26 02:58:18;;;;;;;;;24.25;19.00;;;;;12.15;70.49;99857.97;5090564;27;45693;-67
2021/12/26 03:00:51;;;;;;;;;22.25;19.00;;;;;12.15;70.31;99857.97;5099610;27;45516;-66
2021/12/26 03:03:17;;;;;;;;;3.00;1.75;;;;;12.12;70.13;99855.28;5108180;27;45049;-65
2021/12/26 03:05:44;;;;;;;;;19.50;16.25;;;;;12.10;71.17;99849.91;5109331;27;45270;-66
2021/12/26 03:08:13;;;;;;;;;20.50;17.00;;;;;12.10;71.29;99849.91;5097664;27;46116;-65
2021/12/26 03:10:39;;;;;;;;;17.50;15.25;;;;;12.09;70.75;99850.81;5104579;27;45489;-64
2021/12/26 03:13:10;;;;;;;;;22.50;20.00;;;;;12.11;71.03;99845.44;5092429;27;44947;-66
2021/12/26 03:15:38;;;;;;;;;25.50;18.25;;;;;12.08;71.07;99850.81;5085356;27;45562;-64
2021/12/26 03:18:05;;;;;;;;;21.75;19.25;;;;;11.96;71.30;99830.19;5093503;27;45455;-66
2021/12/26 03:20:38;;;;;;;;;20.25;16.00;;;;;12.05;71.17;99848.09;5096505;27;45487;-65
2021/12/26 03:23:05;;;;;;;;;21.00;18.00;;;;;12.06;70.89;99849.88;5098793;27;45289;-65
2021/12/26 03:25:32;;;;;;;;;25.25;18.50;;;;;11.64;71.23;99788.03;5090917;27;45487;-65
2021/12/26 03:27:58;;;;;;;;;22.75;20.75;;;;;12.08;70.69;99843.66;5083366;27;46568;-65
2021/12/26 03:30:27;;;;;;;;;18.25;18.00;;;;;12.09;71.71;99849.91;5082485;27;45262;-68
2021/12/26 03:32:53;;;;;;;;;19.75;17.50;;;;;12.08;70.81;99851.69;5090144;27;45497;-64
2021/12/26 03:35:21;;;;;;;;;24.50;18.75;;;;;11.92;71.81;99839.09;5084137;27;45589;-66
2021/12/26 03:37:46;;;;;;;;;20.25;16.00;;;;;11.95;71.56;99855.19;5090690;27;45941;-66
2021/12/26 03:40:12;;;;;;;;;20.00;18.25;;;;;11.90;71.48;99839.06;5099782;27;45390;-66
2021/12/26 03:42:38;;;;;;;;;25.25;20.00;;;;;12.02;72.16;99853.44;5104845;27;45379;-63
2021/12/26 03:45:05;;;;;;;;;21.25;14.75;;;;;11.99;71.56;99840.91;5098571;27;45478;-64
2021/12/26 03:47:32;;;;;;;;;20.25;18.25;;;;;12.06;70.77;99852.56;5109095;27;45971;-64
2021/12/26 03:49:58;;;;;;;;;24.25;20.25;;;;;12.07;71.20;99843.66;5094946;27;45292;-67
2021/12/26 03:52:24;;;;;;;;;17.00;16.25;;;;;12.07;71.80;99838.28;5110526;27;44994;-68
2021/12/26 03:54:50;;;;;;;;;21.00;19.75;;;;;11.65;71.09;99762.16;5082863;27;45404;-67
2021/12/26 03:57:16;;;;;;;;;18.75;17.25;;;;;11.96;71.65;99820.41;5069480;27;45578;-66
2021/12/26 03:59:41;;;;;;;;;21.25;20.25;;;;;12.07;71.43;99835.63;5066646;28;45382;-64
2021/12/26 04:02:07;;;;;;;;;20.75;18.75;;;;;11.88;71.56;99808.72;5079653;28;45266;-67
2021/12/26 04:04:33;;;;;;;;;25.25;21.50;;;;;12.10;71.74;99832.97;5079126;28;45369;-65
2021/12/26 04:06:58;;;;;;;;;21.50;19.25;;;;;12.11;71.45;99840.06;5065340;28;46254;-66
2021/12/26 04:09:24;;;;;;;;;23.00;18.75;;;;;12.12;71.60;99840.09;5068386;28;45364;-66
2021/12/26 04:11:49;;;;;;;;;20.25;19.25;;;;;12.11;71.01;99838.31;5079417;28;45239;-67
2021/12/26 04:14:15;;;;;;;;;19.50;17.50;;;;;12.13;71.47;99827.63;5060905;28;45632;-66
2021/12/26 04:16:41;;;;;;;;;21.25;19.00;;;;;12.15;70.91;99826.72;5065725;28;46225;-68
2021/12/26 04:19:07;;;;;;;;;24.00;19.75;;;;;12.16;70.83;99823.16;5073077;28;45119;-67
2021/12/26 04:21:33;;;;;;;;;22.00;20.00;;;;;12.09;70.72;99824.03;5072367;28;45334;-67
2021/12/26 04:23:59;;;;;;;;;19.75;19.25;;;;;12.03;70.92;99807.94;5082386;28;45617;-66
2021/12/26 04:26:25;;;;;;;;;20.25;17.25;;;;;12.09;71.02;99820.44;5088864;28;45507;-68
2021/12/26 04:28:51;;;;;;;;;21.25;21.25;;;;;12.10;71.65;99817.78;5075517;28;45559;-65
2021/12/26 04:31:16;;;;;;;;;21.25;18.25;;;;;12.09;71.01;99821.34;5085179;28;45636;-68
2021/12/26 04:33:43;;;;;;;;;24.50;19.25;;;;;12.10;71.68;99814.22;5085834;28;45378;-67
2021/12/26 04:36:08;;;;;;;;;18.50;13.50;;;;;12.01;70.72;99798.09;5079257;28;45437;-65
2021/12/26 04:38:36;;;;;;;;;22.75;20.50;;;;;12.08;71.31;99816.88;5092045;28;45092;-66
2021/12/26 04:41:04;;;;;;;;;21.75;20.50;;;;;12.07;71.13;99822.22;5086030;28;44918;-65
2021/12/26 04:43:33;;;;;;;;;22.00;21.00;;;;;12.10;71.15;99820.44;5065829;28;45451;-67
2021/12/26 04:46:00;;;;;;;;;25.50;17.50;;;;;12.09;71.04;99821.34;5058751;28;45729;-67
2021/12/26 04:48:26;;;;;;;;;26.25;24.50;;;;;11.96;70.74;99798.06;5073270;28;44892;-67
2021/12/26 04:50:51;;;;;;;;;21.00;18.75;;;;;12.11;71.96;99815.97;5070166;28;45358;-66
2021/12/26 04:53:16;;;;;;;;;21.00;19.25;;;;;11.93;71.12;99780.22;5071524;28;44988;-65
2021/12/26 04:55:42;;;;;;;;;19.50;15.25;;;;;12.12;70.50;99816.00;5071663;27;45418;-66
2021/12/26 04:58:07;;;;;;;;;24.50;20.50;;;;;12.11;70.66;99811.53;5101916;27;45046;-67
2021/12/26 05:00:33;;;;;;;;;17.25;17.25;;;;;12.10;70.91;99808.84;5099490;27;45412;-65
2021/12/26 05:03:03;;;;;;;;;19.50;19.00;;;;;12.07;71.68;99807.03;5094705;27;45461;-67
2021/12/26 05:05:28;;;;;;;;;21.00;18.75;;;;;12.09;71.06;99809.72;5098282;27;46088;-65
2021/12/26 05:07:55;;;;;;;;;28.50;21.25;;;;;12.00;70.90;99791.84;5114708;27;45121;-66
2021/12/26 05:10:21;;;;;;;;;24.00;21.00;;;;;11.59;71.98;99723.78;5086997;27;45201;-65
2021/12/26 05:12:47;;;;;;;;;24.25;22.00;;;;;12.04;71.80;99800.78;5091303;27;45556;-66
2021/12/26 05:15:13;;;;;;;;;28.75;22.75;;;;;12.04;71.22;99811.50;5104502;27;46036;-65
2021/12/26 05:17:40;;;;;;;;;21.50;18.75;;;;;12.03;72.00;99805.25;5093173;28;44963;-64
2021/12/26 05:20:07;;;;;;;;;19.25;15.50;;;;;12.04;71.87;99799.00;5090855;27;45972;-67
2021/12/26 05:22:32;;;;;;;;;19.50;19.25;;;;;12.01;72.00;99806.13;5090830;27;45184;-66
2021/12/26 05:24:58;;;;;;;;;26.00;20.50;;;;;12.00;72.09;99799.00;5099095;27;45467;-65
2021/12/26 05:27:23;;;;;;;;;19.25;15.50;;;;;11.82;72.29;99763.16;5076183;27;45301;-65
2021/12/26 05:29:49;;;;;;;;;23.25;19.50;;;;;11.99;72.47;99795.41;5080945;27;45405;-65
2021/12/26 05:32:14;;;;;;;;;22.50;16.25;;;;;11.97;72.93;99794.50;5087229;27;45289;-65
2021/12/26 05:34:39;;;;;;;;;16.75;16.00;;;;;11.97;72.70;99798.06;5097288;27;45704;-66
2021/12/26 05:37:05;;;;;;;;;24.25;18.75;;;;;12.00;72.16;99793.66;5099416;27;45318;-65
2021/12/26 05:39:30;;;;;;;;;19.75;18.00;;;;;12.01;71.75;99792.75;5088891;27;45334;-63
2021/12/26 05:41:56;;;;;;;;;22.75;19.75;;;;;12.02;72.59;99787.38;5090269;27;45138;-64
2021/12/26 05:44:21;;;;;;;;;24.00;22.50;;;;;11.62;71.47;99714.91;5092313;27;45927;-67
2021/12/26 05:46:46;;;;;;;;;24.50;18.00;;;;;12.01;71.69;99793.66;5090353;27;44957;-65
2021/12/26 05:49:12;;;;;;;;;17.50;10.00;;;;;11.97;71.53;99784.69;5092710;27;45661;-65
2021/12/26 05:51:39;;;;;;;;;22.00;19.25;;;;;11.93;72.56;99788.25;5103347;27;45082;-67
2021/12/26 05:54:05;;;;;;;;;17.50;17.50;;;;;11.98;72.59;99790.97;5095784;27;45171;-65
2021/12/26 05:56:31;;;;;;;;;21.00;19.50;;;;;12.00;72.63;99793.66;5096327;27;45336;-64
2021/12/26 05:58:56;;;;;;;;;22.25;16.00;;;;;12.02;72.13;99795.41;5111222;27;45327;-66
2021/12/26 06:01:21;;;;;;;;;20.50;17.50;;;;;11.98;71.34;99790.97;5112184;27;45362;-66
2021/12/26 06:03:47;;;;;;;;;26.00;22.50;;;;;12.04;71.80;99795.44;5105416;27;45014;-65
2021/12/26 06:06:12;;;;;;;;;18.25;18.00;;;;;12.03;72.29;99788.28;5092695;27;45145;-65
2021/12/26 06:08:38;;;;;;;;;23.50;18.75;;;;;11.97;72.44;99784.69;5107192;27;45157;-67
2021/12/26 06:11:03;;;;;;;;;25.00;19.75;;;;;12.02;71.86;99798.09;5113610;27;45010;-65
2021/12/26 06:13:29;;;;;;;;;21.25;19.75;;;;;11.98;72.77;99786.50;5112159;27;45713;-66
2021/12/26 06:15:55;;;;;;;;;19.00;19.00;;;;;11.97;71.79;99783.81;5111700;27;45236;-64
2021/12/26 06:18:21;;;;;;;;;19.75;18.50;;;;;11.96;72.74;99784.69;5108727;27;45029;-66
2021/12/26 06:20:46;;;;;;;;;17.25;13.25;;;;;11.98;72.03;99791.84;5103723;27;45004;-66
2021/12/26 06:23:13;;;;;;;;;17.75;15.25;;;;;11.96;71.76;99788.28;5109591;27;47104;-64
2021/12/26 06:25:39;;;;;;;;;22.25;17.75;;;;;11.82;72.37;99770.31;5110233;27;45122;-64
2021/12/26 06:28:04;;;;;;;;;16.50;14.75;;;;;11.92;71.63;99789.13;5111277;27;45235;-64
2021/12/26 06:30:30;;;;;;;;;19.50;17.75;;;;;11.41;72.50;99708.53;5111741;27;45220;-65
2021/12/26 06:32:55;;;;;;;;;17.25;15.25;;;;;11.95;72.29;99785.59;5102571;27;45349;-66
2021/12/26 06:35:21;;;;;;;;;17.50;15.00;;;;;11.96;71.71;99788.28;5092910;27;45158;-67
2021/12/26 06:37:46;;;;;;;;;19.00;16.75;;;;;11.92;72.74;99785.56;5100344;27;45305;-65
2021/12/26 06:40:13;;;;;;;;;16.50;16.50;;;;;11.92;72.80;99786.44;5110081;27;45373;-64
2021/12/26 06:42:42;;;;;;;;;17.00;15.50;;;;;11.96;72.41;99785.59;5110778;27;45490;-66
2021/12/26 06:45:09;;;;;;;;;14.00;12.50;;;;;11.98;72.66;99789.16;5096456;27;45172;-66
2021/12/26 06:47:36;;;;;;;;;18.25;15.25;;;;;12.00;71.87;99791.84;5089212;27;44985;-66
2021/12/26 06:50:02;;;;;;;;;18.25;16.75;;;;;11.98;72.44;99785.59;5094296;27;45208;-66
2021/12/26 06:52:27;;;;;;;;;11.50;11.50;;;;;11.61;72.19;99710.44;5092722;27;45411;-64
2021/12/26 06:54:53;;;;;;;;;17.75;13.00;;;;;11.98;72.42;99778.47;5090283;27;45149;-65
2021/12/26 06:57:18;;;;;;;;;19.50;14.75;;;;;12.01;73.16;99782.03;5091568;27;45131;-65
2021/12/26 06:59:44;;;;;;;;;18.50;14.25;;;;;12.04;72.19;99787.41;5093999;27;45171;-67
2021/12/26 07:02:10;;;;;;;;;16.50;14.50;;;;;12.04;71.67;99782.03;5110163;27;46362;-64
2021/12/26 07:04:35;;;;;;;;;18.25;14.25;;;;;12.05;71.74;99783.84;5089346;27;45635;-66
2021/12/26 07:07:01;;;;;;;;;11.50;11.50;;;;;12.03;72.63;99782.91;5095986;27;45294;-65
2021/12/26 07:09:26;;;;;;;;;17.50;16.00;;;;;12.02;72.70;99778.47;5107874;27;45260;-65
2021/12/26 07:11:51;;;;;;;;;13.00;12.75;;;;;11.57;71.77;99696.16;5091660;27;46239;-64
2021/12/26 07:14:17;;;;;;;;;14.25;13.50;;;;;11.93;72.33;99761.47;5088933;27;45054;-65
2021/12/26 07:16:42;;;;;;;;;16.50;15.75;;;;;12.05;72.59;99778.50;5107591;27;44916;-66
2021/12/26 07:19:07;;;;;;;;;18.50;14.25;;;;;12.06;71.99;99778.50;5100649;27;45382;-66
2021/12/26 07:21:33;;;;;;;;;13.00;11.00;;;;;12.07;72.26;99788.31;5092633;27;46261;-65
2021/12/26 07:23:58;;;;;;;;;11.00;11.00;;;;;11.97;71.98;99776.66;5099780;27;45162;-65
2021/12/26 07:26:24;;;;;;;;;14.50;14.00;;;;;12.04;72.96;99796.31;5101227;27;44866;-65
2021/12/26 07:28:50;;;;;;;;;13.50;13.50;;;;;12.07;71.83;99795.44;5106999;27;45222;-65
2021/12/26 07:31:15;;;;;;;;;14.50;11.75;;;;;12.07;72.54;99801.69;5109762;27;45358;-64
2021/12/26 07:33:41;;;;;;;;;19.25;13.25;;;;;12.09;72.12;99801.69;5108664;27;45174;-67
2021/12/26 07:36:07;;;;;;;;;19.75;17.00;;;;;12.06;72.61;99799.00;5109547;27;45336;-65
2021/12/26 07:38:32;;;;;;;;;18.50;13.00;;;;;12.08;72.55;99807.97;5107869;27;44994;-66
2021/12/26 07:40:58;;;;;;;;;13.75;13.50;;;;;12.05;72.27;99803.47;5092482;27;46109;-66
2021/12/26 07:43:23;;;;;;;;;20.25;17.50;;;;;12.06;72.28;99801.69;5090428;27;45165;-66
2021/12/26 07:45:48;;;;;;;;;21.75;17.00;;;;;12.04;73.53;99799.00;5088623;27;45203;-67
2021/12/26 07:48:14;;;;;;;;;18.75;15.75;;;;;12.06;73.24;99793.66;5107193;27;45010;-65
2021/12/26 07:50:39;;;;;;;;;18.25;15.00;;;;;12.09;73.05;99794.59;5112281;27;45336;-65
2021/12/26 07:53:09;;;;;;;;;14.00;13.25;;;;;12.10;72.94;99788.31;5111628;27;45169;-67
2021/12/26 07:55:35;;;;;;;;;21.75;17.50;;;;;12.17;72.54;99791.91;5109852;27;44964;-67
2021/12/26 07:58:00;;;;;;;;;18.00;16.75;;;;;12.19;72.49;99800.84;5090539;28;45585;-65
2021/12/26 08:00:26;;;;;;;;;14.25;13.75;;;;;12.14;72.57;99792.81;5092699;28;45587;-68
2021/12/26 08:02:52;;;;;;;;;17.25;13.75;;;;;12.22;72.86;99805.34;5089610;28;45120;-65
2021/12/26 08:05:18;;;;;;;;;20.75;16.25;;;;;12.17;72.84;99806.19;5086602;28;45352;-68
2021/12/26 08:07:44;;;;;;;;;18.25;15.00;;;;;12.07;72.38;99798.13;5081120;28;44919;-67
2021/12/26 08:10:10;;;;;;;;;13.25;13.25;;;;;12.18;72.97;99815.16;5084333;28;45218;-66
2021/12/26 08:12:35;;;;;;;;;20.50;15.75;;;;;12.09;73.20;99807.97;5066364;28;45275;-64
2021/12/26 08:15:02;;;;;;;;;20.25;15.50;;;;;12.11;72.96;99810.63;5082354;28;45009;-66
2021/12/26 08:17:28;;;;;;;;;15.00;14.00;;;;;12.12;74.01;99810.63;5073950;28;44928;-68
2021/12/26 08:19:54;;;;;;;;;18.25;9.25;;;;;12.09;73.64;99804.38;5073374;28;45575;-65
2021/12/26 08:22:19;;;;;;;;;17.00;15.25;;;;;11.70;73.55;99741.72;5082938;28;45461;-68
2021/12/26 08:24:45;;;;;;;;;16.25;15.00;;;;;12.13;72.80;99816.91;5091404;28;45283;-65
2021/12/26 08:27:10;;;;;;;;;19.75;15.50;;;;;11.98;73.47;99791.84;5081093;28;45187;-66
2021/12/26 08:29:35;;;;;;;;;13.25;13.25;;;;;12.15;73.74;99821.38;5083162;28;46273;-66
2021/12/26 08:32:01;;;;;;;;;14.75;12.50;;;;;11.83;73.55;99761.38;5087177;28;45475;-65
2021/12/26 08:34:27;;;;;;;;;19.50;15.75;;;;;12.09;72.93;99809.72;5066973;28;45572;-66
2021/12/26 08:37:01;;;;;;;;;21.00;17.50;;;;;11.82;73.88;99768.53;5075742;28;45459;-65
2021/12/26 08:39:29;;;;;;;;;19.75;17.00;;;;;12.16;73.42;99835.69;5083982;28;45830;-64
2021/12/26 08:41:55;;;;;;;;;17.50;16.25;;;;;12.16;73.44;99827.63;5079944;28;45386;-67
2021/12/26 08:44:21;;;;;;;;;18.25;16.25;;;;;12.14;73.65;99827.63;5055933;28;45374;-67
2021/12/26 08:46:47;;;;;;;;;23.50;18.00;;;;;12.09;74.12;99820.44;5062272;28;45298;-67
2021/12/26 08:49:13;;;;;;;;;24.50;17.75;;;;;12.16;73.53;99833.00;5045658;28;46004;-65
2021/12/26 08:51:39;;;;;;;;;19.25;15.25;;;;;12.18;73.48;99839.25;5072969;28;45201;-66
2021/12/26 08:54:04;;;;;;;;;17.50;16.00;;;;;12.20;74.04;99837.47;5089738;28;45236;-65
2021/12/26 08:56:30;;;;;;;;;16.25;15.00;;;;;12.22;74.15;99840.16;5079305;27;45410;-65
2021/12/26 08:58:55;;;;;;;;;22.75;17.00;;;;;12.24;73.86;99839.28;5076010;27;45631;-66
2021/12/26 09:01:21;;;;;;;;;20.25;16.50;;;;;12.16;73.99;99823.16;5086517;27;45664;-65
2021/12/26 09:03:46;;;;;;;;;12.25;12.25;;;;;12.29;74.21;99833.94;5075646;27;45685;-65
2021/12/26 09:06:12;;;;;;;;;17.00;14.00;;;;;12.32;73.73;99845.56;5078638;27;45616;-65
2021/12/26 09:08:37;;;;;;;;;17.50;15.25;;;;;11.83;73.66;99759.63;5075900;27;45511;-65
2021/12/26 09:11:03;;;;;;;;;18.25;17.25;;;;;12.32;73.48;99845.56;5075449;27;45578;-67
2021/12/26 09:13:28;;;;;;;;;21.25;16.50;;;;;12.37;73.21;99847.38;5075778;28;45550;-67
2021/12/26 09:15:54;;;;;;;;;19.25;16.75;;;;;12.24;73.56;99822.31;5074936;28;45422;-67
2021/12/26 09:18:19;;;;;;;;;13.00;12.00;;;;;12.34;74.12;99841.13;5075984;27;46049;-66
2021/12/26 09:20:44;;;;;;;;;19.50;17.00;;;;;12.41;73.16;99857.22;5080423;27;45414;-65
2021/12/26 09:23:10;;;;;;;;;17.75;16.00;;;;;12.42;73.14;99859.88;5082745;27;45353;-62
2021/12/26 09:25:36;;;;;;;;;21.75;18.25;;;;;12.46;72.64;99866.16;5097413;27;45265;-62
2021/12/26 09:28:01;;;;;;;;;26.00;23.50;;;;;12.29;73.28;99836.59;5095268;27;46435;-62
2021/12/26 09:30:26;;;;;;;;;20.00;17.00;;;;;12.41;73.84;99854.53;5091772;27;45541;-64
2021/12/26 09:32:52;;;;;;;;;23.25;18.00;;;;;12.50;73.55;99862.59;5090167;27;45843;-64
2021/12/26 09:35:17;;;;;;;;;23.25;17.50;;;;;12.50;73.47;99859.91;5096438;27;45363;-64
2021/12/26 09:37:44;;;;;;;;;15.25;12.25;;;;;12.53;73.03;99863.50;5094899;27;45297;-62
2021/12/26 09:40:11;;;;;;;;;22.50;13.25;;;;;12.58;73.15;99868.88;5088302;27;45504;-65
2021/12/26 09:42:37;;;;;;;;;20.25;14.00;;;;;12.58;72.60;99863.53;5084178;27;46303;-63
2021/12/26 09:45:04;;;;;;;;;16.75;12.00;;;;;12.57;73.64;99853.69;5094519;27;45562;-63
2021/12/26 09:47:30;;;;;;;;;17.50;16.00;;;;;12.61;72.10;99863.53;5092668;27;45496;-64
2021/12/26 09:49:55;;;;;;;;;19.00;15.25;;;;;12.44;72.66;99836.69;5079439;27;45239;-61
2021/12/26 09:52:21;;;;;;;;;13.25;13.25;;;;;12.61;72.21;99863.53;5075444;27;45283;-64
2021/12/26 09:54:46;;;;;;;;;19.00;12.25;;;;;12.08;72.61;99770.47;5082439;27;45255;-61
2021/12/26 09:57:13;;;;;;;;;16.50;12.75;;;;;12.49;72.27;99842.06;5076748;27;46301;-62
2021/12/26 09:59:40;;;;;;;;;19.50;16.00;;;;;12.62;72.33;99861.75;5059462;28;45639;-63
2021/12/26 10:02:14;;;;;;;;;16.25;13.75;;;;;12.69;73.00;99871.63;5080290;28;45184;-62
2021/12/26 10:04:41;;;;;;;;;13.00;11.00;;;;;12.69;73.01;99867.16;5078015;28;45319;-63
2021/12/26 10:07:11;;;;;;;;;13.50;9.00;;;;;12.49;72.05;99842.06;5059083;28;46133;-62
2021/12/26 10:09:38;;;;;;;;;9.00;8.50;;;;;12.63;72.12;99866.22;5059319;28;45499;-62
2021/12/26 10:12:04;;;;;;;;;18.00;13.75;;;;;12.65;72.15;99867.13;5073978;28;45250;-61
2021/12/26 10:14:33;;;;;;;;;13.25;10.50;;;;;12.66;72.14;99864.44;5073274;28;45474;-62
2021/12/26 10:17:02;;;;;;;;;16.50;13.50;;;;;12.66;73.24;99864.44;5070203;28;46626;-62
2021/12/26 10:19:36;;;;;;;;;13.75;12.75;;;;;12.67;72.86;99863.56;5069276;28;45384;-62
2021/12/26 10:22:03;;;;;;;;;12.00;9.00;;;;;12.66;72.29;99859.09;5072331;28;45530;-62
2021/12/26 10:24:29;;;;;;;;;11.50;9.50;;;;;12.64;72.22;99852.84;5062877;28;45300;-62
2021/12/26 10:26:57;;;;;;;;;12.50;9.25;;;;;12.62;72.54;99848.34;5053728;28;46099;-63
2021/12/26 10:29:46;;;;;;;;;15.00;12.75;;;;;12.64;72.61;99844.81;5072552;28;45596;-64
2021/12/26 10:32:20;;;;;;;;;14.25;11.50;;;;;12.63;73.15;99844.78;5074316;28;45387;-63
2021/12/26 10:34:57;;;;;;;;;19.75;17.75;;;;;12.64;73.03;99846.59;5072581;28;45417;-66
2021/12/26 10:37:33;;;;;;;;;18.75;15.75;;;;;12.57;72.46;99837.59;5066439;28;46279;-64
2021/12/26 10:40:06;;;;;;;;;11.00;11.00;;;;;12.56;72.62;99838.53;5055084;28;45286;-64
2021/12/26 10:42:37;;;;;;;;;13.00;11.50;;;;;12.55;73.48;99842.06;5059176;28;45537;-65
2021/12/26 10:45:05;;;;;;;;;14.25;14.25;;;;;12.54;72.99;99838.50;5073845;28;45581;-64
2021/12/26 10:47:33;;;;;;;;;11.25;10.25;;;;;12.58;73.40;99834.06;5071118;28;46466;-64
2021/12/26 10:50:00;;;;;;;;;15.25;11.75;;;;;12.62;73.16;99843.00;5073051;28;45477;-64
2021/12/26 10:52:48;;;;;;;;;9.00;6.50;;;;;12.44;72.97;99800.94;5064455;28;45338;-63
2021/12/26 10:55:17;;;;;;;;;9.50;9.25;;;;;12.59;73.88;99822.47;5063791;27;44875;-65
2021/12/26 10:57:45;;;;;;;;;12.25;10.00;;;;;12.66;73.27;99829.59;5062181;28;45439;-66
2021/12/26 11:00:17;;;;;;;;;10.25;8.00;;;;;12.64;73.80;99820.69;5067620;28;45507;-65
2021/12/26 11:03:05;;;;;;;;;9.00;8.25;;;;;12.61;73.42;99826.03;5069584;28;45347;-63
2021/12/26 11:05:40;;;;;;;;;14.50;10.75;;;;;12.60;74.17;99824.22;5054466;28;45363;-63
2021/12/26 11:08:15;;;;;;;;;11.50;10.00;;;;;12.62;74.65;99822.47;5067950;28;45625;-65
2021/12/26 11:10:47;;;;;;;;;15.00;14.00;;;;;12.61;73.91;99826.03;5068440;28;45484;-65
2021/12/26 11:13:24;;;;;;;;;9.50;8.00;;;;;12.58;74.69;99820.66;5076165;28;45577;-65
2021/12/26 11:15:54;;;;;;;;;8.00;8.00;;;;;12.58;75.26;99828.69;5051737;28;45256;-66
2021/12/26 11:18:20;;;;;;;;;24.00;16.50;;;;;12.37;74.96;99794.69;5079936;28;45469;-65
2021/12/26 11:20:52;;;;;;;;;12.25;10.75;;;;;12.55;75.30;99828.69;5071393;28;45018;-67